createdAt,value
2017-05-02T00:00:18.504Z,59.20
2017-05-02T00:02:46.371Z,58.70
2017-05-02T00:05:13.767Z,59.10
2017-05-02T00:07:40.884Z,59.20
2017-05-02T00:10:08.175Z,59.20
2017-05-02T00:12:36.755Z,60.00
2017-05-02T00:15:03.955Z,59.90
2017-05-02T00:17:31.146Z,60.70
2017-05-02T00:20:01.350Z,60.00
2017-05-02T00:22:28.973Z,60.60
2017-05-02T00:24:56.045Z,61.30
2017-05-02T00:27:24.173Z,60.40
2017-05-02T00:29:51.212Z,60.80
2017-05-02T00:32:18.199Z,59.90
2017-05-02T00:34:45.599Z,60.60
2017-05-02T00:37:12.570Z,60.90
2017-05-02T00:39:39.718Z,60.40
2017-05-02T00:42:07.429Z,60.40
2017-05-02T00:44:34.667Z,60.40
2017-05-02T00:47:01.853Z,60.30
2017-05-02T00:49:29.969Z,60.30
2017-05-02T00:51:57.025Z,60.40
2017-05-02T00:54:24.025Z,60.10
2017-05-02T00:56:51.530Z,60.60
2017-05-02T00:59:18.840Z,60.60
2017-05-02T01:01:46.108Z,60.70
2017-05-02T01:04:13.796Z,60.50
2017-05-02T01:06:42.934Z,60.20
2017-05-02T01:09:11.461Z,60.80
2017-05-02T01:11:39.080Z,60.40
2017-05-02T01:14:06.293Z,60.40
2017-05-02T01:16:33.523Z,60.10
2017-05-02T01:19:01.296Z,59.90
2017-05-02T01:21:28.461Z,60.30
2017-05-02T01:23:56.510Z,60.00
2017-05-02T01:26:24.144Z,60.00
2017-05-02T01:28:51.204Z,60.30
2017-05-02T01:31:18.157Z,59.90
2017-05-02T01:33:45.504Z,60.10
2017-05-02T01:36:12.546Z,60.10
2017-05-02T01:38:39.553Z,59.60
2017-05-02T01:41:07.672Z,59.40
2017-05-02T01:43:34.669Z,59.40
2017-05-02T01:46:02.499Z,59.60
2017-05-02T01:48:29.853Z,59.90
2017-05-02T01:50:56.832Z,59.70
2017-05-02T01:53:23.823Z,60.10
2017-05-02T01:55:51.201Z,59.40
2017-05-02T01:58:18.209Z,59.20
2017-05-02T02:00:45.927Z,58.80
2017-05-02T02:03:13.375Z,58.90
2017-05-02T02:05:40.369Z,58.70
2017-05-02T02:08:08.409Z,58.60
2017-05-02T02:10:35.871Z,58.50
2017-05-02T02:13:02.867Z,59.00
2017-05-02T02:15:30.659Z,58.80
2017-05-02T02:17:57.964Z,58.70
2017-05-02T02:20:25.654Z,58.00
2017-05-02T02:22:52.636Z,57.50
2017-05-02T02:25:19.964Z,57.70
2017-05-02T02:27:46.948Z,57.90
2017-05-02T02:30:13.975Z,57.60
2017-05-02T02:32:41.409Z,57.60
2017-05-02T02:35:08.491Z,57.60
2017-05-02T02:37:35.492Z,57.40
2017-05-02T02:40:02.983Z,57.00
2017-05-02T02:42:29.955Z,57.20
2017-05-02T02:44:56.906Z,57.30
2017-05-02T02:47:24.238Z,57.10
2017-05-02T02:49:51.213Z,56.90
2017-05-02T02:52:18.944Z,56.90
2017-05-02T02:54:46.292Z,57.00
2017-05-02T02:57:13.267Z,56.90
2017-05-02T02:59:40.241Z,57.10
2017-05-02T03:02:08.333Z,56.90
2017-05-02T03:04:35.311Z,56.70
2017-05-02T03:07:02.300Z,56.70
2017-05-02T03:09:30.439Z,56.80
2017-05-02T03:11:57.407Z,56.10
2017-05-02T03:14:24.410Z,56.20
2017-05-02T03:16:51.878Z,56.00
2017-05-02T03:19:18.876Z,55.70
2017-05-02T03:21:45.864Z,56.40
2017-05-02T03:24:13.257Z,56.50
2017-05-02T03:26:40.271Z,56.60
2017-05-02T03:29:07.235Z,56.50
2017-05-02T03:31:34.624Z,56.20
2017-05-02T03:34:02.360Z,55.70
2017-05-02T03:36:29.326Z,56.00
2017-05-02T03:38:56.848Z,56.10
2017-05-02T03:41:23.863Z,55.80
2017-05-02T03:43:50.859Z,55.20
2017-05-02T03:46:18.182Z,56.00
2017-05-02T03:48:45.174Z,55.30
2017-05-02T03:51:12.160Z,55.20
2017-05-02T03:53:39.530Z,55.50
2017-05-02T03:56:06.500Z,55.80
2017-05-02T03:58:33.524Z,55.00
2017-05-02T04:01:00.881Z,55.10
2017-05-02T04:03:27.862Z,54.90
2017-05-02T04:05:54.849Z,54.70
2017-05-02T04:08:22.918Z,55.00
2017-05-02T04:10:50.620Z,55.10
2017-05-02T04:13:17.584Z,55.10
2017-05-02T04:15:45.024Z,55.20
2017-05-02T04:18:12.072Z,54.80
2017-05-02T04:20:39.048Z,54.90
2017-05-02T04:23:06.477Z,55.00
2017-05-02T04:25:33.468Z,54.90
2017-05-02T04:28:00.449Z,54.80
2017-05-02T04:30:27.817Z,54.90
2017-05-02T04:32:54.791Z,54.60
2017-05-02T04:35:21.780Z,54.30
2017-05-02T04:37:49.173Z,54.10
2017-05-02T04:40:16.156Z,54.80
2017-05-02T04:42:43.151Z,54.80
2017-05-02T04:45:10.622Z,54.80
2017-05-02T04:47:37.652Z,55.00
2017-05-02T04:50:04.708Z,54.80
2017-05-02T04:52:32.083Z,55.00
2017-05-02T04:54:59.091Z,55.00
2017-05-02T04:57:26.120Z,54.50
2017-05-02T04:59:54.245Z,55.30
2017-05-02T05:02:21.290Z,54.20
2017-05-02T05:04:48.274Z,54.80
2017-05-02T05:07:16.321Z,54.90
2017-05-02T05:09:43.313Z,54.40
2017-05-02T05:12:10.300Z,54.60
2017-05-02T05:14:37.655Z,54.60
2017-05-02T05:17:05.628Z,54.20
2017-05-02T05:19:32.643Z,53.80
2017-05-02T05:22:00.016Z,53.90
2017-05-02T05:24:27.071Z,54.20
2017-05-02T05:26:54.107Z,53.80
2017-05-02T05:29:21.572Z,54.30
2017-05-02T05:31:49.593Z,53.70
2017-05-02T05:34:17.297Z,54.60
2017-05-02T05:36:44.669Z,54.20
2017-05-02T05:39:11.672Z,54.10
2017-05-02T05:41:38.640Z,54.60
2017-05-02T05:44:06.000Z,55.50
2017-05-02T05:46:40.063Z,55.10
2017-05-02T05:49:08.171Z,54.30
2017-05-02T05:51:35.157Z,54.20
2017-05-02T05:54:02.141Z,54.40
2017-05-02T05:56:29.507Z,54.70
2017-05-02T05:58:56.489Z,55.00
2017-05-02T06:01:23.479Z,54.80
2017-05-02T06:03:50.877Z,54.90
2017-05-02T06:06:17.851Z,54.80
2017-05-02T06:08:45.893Z,55.10
2017-05-02T06:11:13.908Z,54.90
2017-05-02T06:13:40.944Z,54.20
2017-05-02T06:16:08.653Z,54.80
2017-05-02T06:18:36.115Z,54.60
2017-05-02T06:21:03.120Z,54.30
2017-05-02T06:23:30.156Z,54.30
2017-05-02T06:25:57.585Z,54.30
2017-05-02T06:28:24.817Z,53.60
2017-05-02T06:30:59.481Z,53.40
2017-05-02T06:33:26.536Z,53.50
2017-05-02T06:35:54.249Z,53.70
2017-05-02T06:38:21.897Z,54.50
2017-05-02T06:40:49.024Z,53.60
2017-05-02T06:43:16.055Z,53.40
2017-05-02T06:45:44.156Z,52.70
2017-05-02T06:48:11.170Z,53.30
2017-05-02T06:50:38.173Z,53.20
2017-05-02T06:53:05.608Z,53.30
2017-05-02T06:55:32.637Z,52.60
2017-05-02T06:57:59.667Z,53.00
2017-05-02T07:00:27.779Z,53.20
2017-05-02T07:02:54.760Z,53.60
2017-05-02T07:05:22.496Z,52.50
2017-05-02T07:07:49.841Z,53.00
2017-05-02T07:10:16.836Z,53.50
2017-05-02T07:12:44.560Z,53.00
2017-05-02T07:15:12.012Z,52.60
2017-05-02T07:17:39.018Z,52.60
2017-05-02T07:20:06.003Z,52.10
2017-05-02T07:22:33.340Z,52.60
2017-05-02T07:25:00.353Z,52.10
2017-05-02T07:27:27.353Z,52.00
2017-05-02T07:29:54.672Z,51.80
2017-05-02T07:32:21.672Z,52.00
2017-05-02T07:34:49.402Z,51.50
2017-05-02T07:37:16.678Z,50.90
2017-05-02T07:39:44.385Z,51.60
2017-05-02T07:42:11.354Z,50.80
2017-05-02T07:44:38.801Z,50.10
2017-05-02T07:47:05.814Z,50.80
2017-05-02T07:49:32.791Z,50.20
2017-05-02T07:52:00.151Z,49.70
2017-05-02T07:54:34.123Z,49.50
2017-05-02T07:57:01.417Z,49.30
2017-05-02T07:59:28.404Z,49.40
2017-05-02T08:01:55.481Z,48.90
2017-05-02T08:04:22.812Z,48.10
2017-05-02T08:06:50.036Z,48.20
2017-05-02T08:09:17.761Z,49.00
2017-05-02T08:11:45.052Z,48.20
2017-05-02T08:14:12.765Z,47.50
2017-05-02T08:16:39.752Z,49.00
2017-05-02T08:19:07.976Z,47.30
2017-05-02T08:21:34.965Z,47.00
2017-05-02T08:24:01.947Z,46.80
2017-05-02T08:26:29.327Z,46.70
2017-05-02T08:28:56.329Z,46.40
2017-05-02T08:31:23.316Z,45.60
2017-05-02T08:33:50.646Z,45.70
2017-05-02T08:36:17.708Z,46.10
2017-05-02T08:38:44.708Z,47.10
2017-05-02T08:41:12.100Z,46.90
2017-05-02T08:43:39.077Z,46.60
2017-05-02T08:46:06.037Z,46.90
2017-05-02T08:48:34.160Z,46.40
2017-05-02T08:51:01.135Z,45.60
2017-05-02T08:53:28.865Z,46.10
2017-05-02T08:55:56.221Z,45.80
2017-05-02T08:58:23.205Z,46.10
2017-05-02T09:00:50.931Z,46.20
2017-05-02T09:03:18.262Z,45.90
2017-05-02T09:05:45.292Z,45.70
2017-05-02T09:08:12.317Z,46.20
2017-05-02T09:10:39.732Z,47.00
2017-05-02T09:13:06.745Z,46.20
2017-05-02T09:15:33.751Z,46.50
2017-05-02T09:18:01.152Z,45.30
2017-05-02T09:20:28.932Z,44.90
2017-05-02T09:22:55.947Z,45.40
2017-05-02T09:25:23.283Z,46.20
2017-05-02T09:27:50.277Z,46.10
2017-05-02T09:30:17.293Z,45.10
2017-05-02T09:32:44.656Z,45.50
2017-05-02T09:35:11.657Z,45.20
2017-05-02T09:37:39.373Z,45.00
2017-05-02T09:40:06.814Z,45.20
2017-05-02T09:42:33.805Z,44.50
2017-05-02T09:45:01.636Z,44.20
2017-05-02T09:47:28.976Z,44.20
2017-05-02T09:49:56.208Z,44.20
2017-05-02T09:52:23.211Z,43.10
2017-05-02T09:54:51.265Z,43.80
2017-05-02T09:57:18.281Z,44.00
2017-05-02T09:59:45.284Z,44.00
2017-05-02T10:02:12.865Z,44.00
2017-05-02T10:04:39.831Z,43.80
2017-05-02T10:07:06.816Z,43.80
2017-05-02T10:09:34.961Z,41.50
2017-05-02T10:12:01.972Z,42.80
2017-05-02T10:14:28.975Z,42.70
2017-05-02T10:16:57.730Z,42.70
2017-05-02T10:19:24.711Z,42.20
2017-05-02T10:21:52.430Z,41.40
2017-05-02T10:24:19.801Z,41.20
2017-05-02T10:26:46.823Z,41.30
2017-05-02T10:29:13.830Z,40.40
2017-05-02T10:31:41.128Z,40.90
2017-05-02T10:34:08.146Z,41.30
2017-05-02T10:36:35.253Z,39.90
2017-05-02T10:39:02.563Z,40.70
2017-05-02T10:41:29.528Z,40.40
2017-05-02T10:43:56.525Z,39.30
2017-05-02T10:46:30.780Z,39.90
2017-05-02T10:48:57.761Z,39.40
2017-05-02T10:51:24.777Z,39.80
2017-05-02T10:53:52.070Z,39.60
2017-05-02T10:56:19.064Z,39.60
2017-05-02T10:58:46.037Z,39.60
2017-05-02T11:01:13.467Z,39.80
2017-05-02T11:03:40.483Z,37.70
2017-05-02T11:06:07.714Z,39.30
2017-05-02T11:08:35.759Z,38.50
2017-05-02T11:11:02.980Z,39.30
2017-05-02T11:13:30.403Z,38.00
2017-05-02T11:15:57.879Z,38.70
2017-05-02T11:18:24.859Z,38.70
2017-05-02T11:20:52.700Z,38.90
2017-05-02T11:23:20.948Z,38.10
2017-05-02T11:25:48.818Z,39.00
2017-05-02T11:28:16.433Z,39.90
2017-05-02T11:30:43.934Z,40.40
2017-05-02T11:33:11.744Z,40.70
2017-05-02T11:35:38.738Z,39.90
2017-05-02T11:38:06.261Z,41.70
2017-05-02T11:40:33.436Z,41.00
2017-05-02T11:43:00.694Z,41.00
2017-05-02T11:45:28.186Z,41.50
2017-05-02T11:47:55.497Z,41.20
2017-05-02T11:50:22.711Z,41.00
2017-05-02T11:52:50.642Z,41.90
2017-05-02T11:55:18.406Z,42.70
2017-05-02T11:57:45.436Z,41.80
2017-05-02T12:00:13.048Z,41.70
2017-05-02T12:02:40.141Z,41.60
2017-05-02T12:05:07.897Z,41.60
2017-05-02T12:07:35.225Z,41.60
2017-05-02T12:10:02.229Z,41.70
2017-05-02T12:12:29.228Z,41.00
2017-05-02T12:14:56.552Z,41.00
2017-05-02T12:17:23.526Z,41.90
2017-05-02T12:19:50.520Z,41.80
2017-05-02T12:22:18.743Z,42.50
2017-05-02T12:24:46.298Z,42.30
2017-05-02T12:27:13.468Z,42.50
2017-05-02T12:29:40.800Z,41.80
2017-05-02T12:32:07.805Z,41.90
2017-05-02T12:34:34.801Z,41.50
2017-05-02T12:37:02.224Z,41.70
2017-05-02T12:39:29.289Z,42.00
2017-05-02T12:41:57.063Z,42.00
2017-05-02T12:44:24.385Z,41.90
2017-05-02T12:46:51.637Z,42.10
2017-05-02T12:49:18.637Z,42.70
2017-05-02T12:51:46.765Z,42.20
2017-05-02T12:54:13.754Z,42.50
2017-05-02T12:56:40.860Z,43.40
2017-05-02T12:59:08.220Z,43.00
2017-05-02T13:01:35.247Z,42.50
2017-05-02T13:04:02.241Z,43.20
2017-05-02T13:06:30.324Z,43.10
2017-05-02T13:08:58.048Z,43.60
2017-05-02T13:11:25.239Z,43.10
2017-05-02T13:13:53.016Z,42.70
2017-05-02T13:16:20.077Z,42.40
2017-05-02T13:18:47.097Z,42.60
2017-05-02T13:21:14.401Z,42.00
2017-05-02T13:23:41.480Z,41.10
2017-05-02T13:26:09.242Z,42.10
2017-05-02T13:28:37.357Z,41.80
2017-05-02T13:31:04.421Z,41.80
2017-05-02T13:33:31.450Z,42.30
2017-05-02T13:35:58.832Z,43.70
2017-05-02T13:38:26.601Z,44.50
2017-05-02T13:40:53.614Z,44.50
2017-05-02T13:43:20.997Z,45.60
2017-05-02T13:45:48.013Z,47.00
2017-05-02T13:48:15.012Z,47.40
2017-05-02T13:50:42.317Z,48.40
2017-05-02T13:53:09.270Z,49.10
2017-05-02T13:55:36.281Z,50.80
2017-05-02T13:58:03.752Z,51.70
2017-05-02T14:00:30.833Z,50.80
2017-05-02T14:02:57.827Z,50.30
2017-05-02T14:05:25.187Z,50.10
2017-05-02T14:07:52.204Z,50.10
2017-05-02T14:10:19.288Z,49.00
2017-05-02T14:12:46.737Z,50.80
2017-05-02T14:15:13.749Z,52.70
2017-05-02T14:17:40.761Z,53.30
2017-05-02T14:20:08.186Z,53.40
2017-05-02T14:22:35.211Z,54.00
2017-05-02T14:25:02.224Z,54.30
2017-05-02T14:27:29.646Z,55.20
2017-05-02T14:29:56.675Z,55.70
2017-05-02T14:32:23.697Z,57.10
2017-05-02T14:34:51.070Z,56.90
2017-05-02T14:37:18.060Z,58.50
2017-05-02T14:39:45.066Z,58.80
2017-05-02T14:42:12.528Z,59.10
2017-05-02T14:44:40.317Z,60.80
2017-05-02T14:47:08.079Z,59.50
2017-05-02T14:49:35.406Z,62.60
2017-05-02T14:52:02.472Z,62.90
2017-05-02T14:54:29.448Z,62.00
2017-05-02T14:56:57.590Z,63.80
2017-05-02T14:59:24.631Z,62.90
2017-05-02T15:01:51.722Z,63.90
2017-05-02T15:04:19.230Z,64.50
2017-05-02T15:06:46.305Z,65.30
2017-05-02T15:09:13.301Z,64.90
2017-05-02T15:11:40.717Z,65.70
2017-05-02T15:14:07.838Z,65.40
2017-05-02T15:16:35.774Z,65.20
2017-05-02T15:19:03.384Z,66.50
2017-05-02T15:21:30.864Z,68.10
2017-05-02T15:23:57.941Z,68.50
2017-05-02T15:26:25.570Z,68.00
2017-05-02T15:28:52.684Z,68.20
2017-05-02T15:31:19.704Z,68.00
2017-05-02T15:33:47.062Z,68.00
2017-05-02T15:36:14.059Z,68.10
2017-05-02T15:38:41.056Z,68.00
2017-05-02T15:41:08.408Z,68.10
2017-05-02T15:43:35.400Z,68.30
2017-05-02T15:46:03.167Z,69.40
2017-05-02T15:48:30.603Z,68.80
2017-05-02T15:50:57.671Z,69.60
2017-05-02T15:53:24.670Z,69.10
2017-05-02T15:55:52.065Z,68.90
2017-05-02T15:58:19.079Z,69.90
2017-05-02T16:00:46.072Z,69.50
2017-05-02T16:03:14.310Z,69.70
2017-05-02T16:05:42.018Z,71.20
2017-05-02T16:08:09.025Z,70.00
2017-05-02T16:10:36.361Z,70.10
2017-05-02T16:13:03.389Z,69.60
2017-05-02T16:15:30.421Z,70.30
2017-05-02T16:17:57.816Z,71.10
2017-05-02T16:20:24.846Z,70.90
2017-05-02T16:22:51.836Z,70.80
2017-05-02T16:25:19.177Z,70.20
2017-05-02T16:27:46.160Z,71.50
2017-05-02T16:30:13.895Z,70.80
2017-05-02T16:32:41.344Z,71.80
2017-05-02T16:35:08.352Z,72.20
2017-05-02T16:37:35.429Z,72.50
2017-05-02T16:40:02.876Z,71.80
2017-05-02T16:42:29.942Z,72.80
2017-05-02T16:44:56.896Z,72.50
2017-05-02T16:47:24.341Z,73.50
2017-05-02T16:49:51.293Z,73.70
2017-05-02T16:52:18.284Z,73.60
2017-05-02T16:54:45.810Z,74.50
2017-05-02T16:57:12.807Z,73.80
2017-05-02T16:59:39.891Z,74.70
2017-05-02T17:02:07.239Z,75.40
2017-05-02T17:04:34.393Z,75.10
2017-05-02T17:07:01.382Z,75.90
2017-05-02T17:09:29.518Z,74.70
2017-05-02T17:11:56.508Z,75.40
2017-05-02T17:14:24.269Z,76.30
2017-05-02T17:16:59.580Z,76.10
2017-05-02T17:19:26.581Z,76.70
2017-05-02T17:21:53.633Z,76.60
2017-05-02T17:24:21.726Z,78.40
2017-05-02T17:26:49.786Z,77.20
2017-05-02T17:29:17.024Z,79.00
2017-05-02T17:31:44.405Z,79.00
2017-05-02T17:34:11.376Z,79.10
2017-05-02T17:36:38.412Z,78.90
2017-05-02T17:39:05.857Z,78.70
2017-05-02T17:41:32.861Z,79.40
2017-05-02T17:44:00.952Z,78.30
2017-05-02T17:46:28.353Z,79.60
2017-05-02T17:48:55.340Z,78.30
2017-05-02T17:51:23.193Z,78.80
2017-05-02T17:53:50.643Z,79.20
2017-05-02T17:56:17.712Z,79.50
2017-05-02T17:58:44.814Z,79.10
2017-05-02T18:01:12.273Z,78.90
2017-05-02T18:03:39.371Z,79.00
2017-05-02T18:06:07.185Z,78.80
2017-05-02T18:08:34.536Z,78.70
2017-05-02T18:11:01.508Z,78.70
2017-05-02T18:13:28.602Z,78.50
2017-05-02T18:15:56.676Z,78.90
2017-05-02T18:18:23.771Z,79.80
2017-05-02T18:20:50.893Z,79.20
2017-05-02T18:23:18.257Z,79.10
2017-05-02T18:25:45.311Z,79.60
2017-05-02T18:28:12.337Z,79.40
2017-05-02T18:30:39.746Z,79.10
2017-05-02T18:33:06.770Z,79.10
2017-05-02T18:35:33.776Z,78.80
2017-05-02T18:38:01.988Z,79.00
2017-05-02T18:40:29.052Z,78.60
2017-05-02T18:42:56.077Z,79.20
2017-05-02T18:45:23.412Z,79.00
2017-05-02T18:47:50.416Z,79.60
2017-05-02T18:50:17.594Z,79.80
2017-05-02T18:52:45.967Z,79.50
2017-05-02T18:55:13.010Z,79.10
2017-05-02T18:57:41.140Z,77.50
2017-05-02T19:00:08.785Z,78.00
2017-05-02T19:02:36.959Z,77.90
2017-05-02T19:05:04.496Z,78.90
2017-05-02T19:07:32.857Z,80.50
2017-05-02T19:10:00.197Z,80.30
2017-05-02T19:12:27.987Z,80.20
2017-05-02T19:14:55.597Z,79.60
2017-05-02T19:17:22.778Z,79.30
2017-05-02T19:19:50.452Z,79.50
2017-05-02T19:22:17.955Z,79.10
2017-05-02T19:24:45.914Z,79.20
2017-05-02T19:27:13.509Z,79.10
2017-05-02T19:29:41.111Z,79.10
2017-05-02T19:32:08.411Z,78.70
2017-05-02T19:34:35.522Z,79.30
2017-05-02T19:37:02.950Z,79.40
2017-05-02T19:39:30.223Z,79.20
2017-05-02T19:41:57.372Z,79.00
2017-05-02T19:44:24.886Z,78.50
2017-05-02T19:46:52.239Z,78.80
2017-05-02T19:49:19.424Z,79.00
2017-05-02T19:51:46.845Z,79.60
2017-05-02T19:54:13.913Z,78.90
2017-05-02T19:56:41.755Z,79.20
2017-05-02T19:59:09.228Z,78.70
2017-05-02T20:01:36.317Z,78.90
2017-05-02T20:04:03.415Z,79.10
2017-05-02T20:06:30.983Z,79.10
2017-05-02T20:08:58.168Z,79.50
2017-05-02T20:11:25.438Z,79.80
2017-05-02T20:13:52.854Z,79.40
2017-05-02T20:16:20.589Z,79.00
2017-05-02T20:18:47.742Z,79.60
2017-05-02T20:21:15.313Z,79.60
2017-05-02T20:23:42.454Z,79.40
2017-05-02T20:26:09.621Z,79.90
2017-05-02T20:28:37.914Z,80.20
2017-05-02T20:31:05.060Z,79.70
2017-05-02T20:33:32.936Z,80.10
2017-05-02T20:36:01.075Z,80.90
2017-05-02T20:38:28.099Z,80.10
2017-05-02T20:40:55.120Z,80.20
2017-05-02T20:43:22.521Z,80.30
2017-05-02T20:45:49.586Z,80.10
2017-05-02T20:48:16.970Z,79.90
2017-05-02T20:50:44.668Z,80.00
2017-05-02T20:53:12.802Z,80.20
2017-05-02T20:55:40.724Z,80.30
2017-05-02T20:58:08.060Z,80.60
2017-05-02T21:00:35.057Z,80.70
2017-05-02T21:03:02.039Z,81.00
2017-05-02T21:05:33.670Z,81.20
2017-05-02T21:08:03.991Z,81.30
2017-05-02T21:10:31.167Z,81.20
2017-05-02T21:13:00.057Z,81.60
2017-05-02T21:15:27.005Z,81.80
2017-05-02T21:17:54.000Z,81.60
2017-05-02T21:20:21.425Z,81.70
2017-05-02T21:22:48.404Z,81.70
2017-05-02T21:25:15.428Z,81.70
2017-05-02T21:28:36.009Z,81.40
2017-05-02T21:31:11.893Z,81.30
2017-05-02T21:33:39.176Z,81.40
2017-05-02T21:36:06.173Z,81.20
2017-05-02T21:38:33.185Z,81.20
2017-05-02T21:41:00.620Z,81.20
2017-05-02T21:43:27.632Z,81.40
2017-05-02T21:45:54.636Z,81.20
2017-05-02T21:48:22.137Z,81.10
2017-05-02T21:50:49.160Z,81.20
2017-05-02T21:53:16.177Z,81.90
2017-05-02T21:55:43.496Z,81.80
2017-05-02T21:58:10.497Z,82.50
2017-05-02T22:00:37.483Z,82.50
2017-05-02T22:03:04.813Z,82.50
2017-05-02T22:05:31.866Z,81.80
2017-05-02T22:07:58.855Z,81.30
2017-05-02T22:10:26.975Z,81.40
2017-05-02T22:12:53.968Z,81.90
2017-05-02T22:15:20.979Z,81.50
2017-05-02T22:18:07.098Z,81.40
2017-05-02T22:20:37.144Z,81.40
2017-05-02T22:23:04.150Z,81.50
2017-05-02T22:25:50.136Z,81.70
2017-05-02T22:28:22.600Z,81.40
2017-05-02T22:30:49.712Z,81.70
2017-05-02T22:33:17.232Z,82.30
2017-05-02T22:35:44.247Z,81.80
2017-05-02T22:38:11.251Z,81.70
2017-05-02T22:40:39.302Z,81.70
2017-05-02T22:43:06.350Z,81.20
2017-05-02T22:45:33.356Z,80.90
2017-05-02T22:48:00.707Z,81.70
2017-05-02T22:50:27.708Z,81.60
2017-05-02T22:52:54.704Z,82.10
2017-05-02T22:55:22.181Z,81.30
2017-05-02T22:57:49.181Z,81.30
2017-05-02T23:00:16.207Z,81.40
2017-05-02T23:02:44.365Z,80.90
2017-05-02T23:05:11.378Z,81.50
2017-05-02T23:07:38.368Z,82.10
2017-05-02T23:10:05.807Z,81.60
2017-05-02T23:12:32.813Z,81.90
2017-05-02T23:14:59.819Z,81.40
2017-05-02T23:17:27.165Z,81.90
2017-05-02T23:19:54.219Z,81.70
2017-05-02T23:22:21.261Z,81.70
2017-05-02T23:24:49.432Z,81.30
2017-05-02T23:27:16.448Z,81.30
2017-05-02T23:29:43.531Z,81.20
2017-05-02T23:32:10.900Z,81.00
2017-05-02T23:34:37.937Z,81.20
2017-05-02T23:37:04.920Z,82.20
2017-05-02T23:39:32.326Z,81.80
2017-05-02T23:41:59.327Z,81.70
2017-05-02T23:44:26.332Z,81.60
2017-05-02T23:46:53.692Z,81.60
2017-05-02T23:49:20.771Z,81.90
2017-05-02T23:51:47.997Z,81.50
2017-05-02T23:54:15.341Z,81.00
2017-05-02T23:56:42.333Z,81.40
2017-05-02T23:59:09.389Z,82.00
